Gamle Salten — LCQT — position and weather

sailwx.info

Track history (hours):
 
Tides and Currents Weather Stations Pressure Air Temp Water Temp Dewpoint Dewpoint Depression Visibility Wind Speed Wind Dir Waves Ship Positions

Gamle Salten

Last reported at 2016-Oct-01 21:32 UTC. Time now 2016-Oct-01 22:19 UTC.
Position N 67°17' E 014°22'.

Length 48 m; draft 5 m.

Type: Passenger vessel. MMSI: 258178000.

Date/timePositionNaut miles runAvg speedWind from/ knotsBaromVisibWave heightAir tempDewpointWater temp
2016-Oct-01 21:32N 67°17' E 014°22'0 0.0
2016-Oct-01 20:32N 67°17' E 014°22'0 0.0
2016-Oct-01 15:32N 67°17' E 014°22'0 0.0
2016-Oct-01 14:31N 67°17' E 014°22'0 0.0
2016-Oct-01 13:32N 67°17' E 014°22'0 0.0
2016-Oct-01 04:32N 67°17' E 014°22'0 0.0
2016-Oct-01 03:31N 67°17' E 014°22'0 0.0
2016-Oct-01 00:32N 67°17' E 014°22'0 0.0
2016-Sep-30 22:31N 67°17' E 014°22'0 0.0
2016-Sep-30 20:33N 67°17' E 014°22'0 0.0
2016-Sep-30 17:31N 67°17' E 014°22'0 0.0
2016-Sep-30 16:33N 67°17' E 014°22'0 0.0
2016-Sep-30 14:32N 67°17' E 014°22'0 0.0
2016-Sep-30 13:32N 67°17' E 014°22'5 1.7
2016-Sep-30 10:33N 67°22' E 014°24'113 4.1
2016-Sep-29 07:07N 68°60' E 016°56'19 2.9
2016-Sep-29 00:33N 69°07' E 017°45'0 0.0
2016-Sep-28 21:31N 69°07' E 017°45'0 0.0
2016-Sep-28 19:30N 69°07' E 017°45'0 0.0
2016-Sep-28 16:28N 69°07' E 017°45'0 0.0
2016-Sep-28 15:28N 69°07' E 017°45'0 0.0
2016-Sep-28 12:32N 69°07' E 017°45'0 0.0
2016-Sep-28 08:33N 69°07' E 017°45'0 0.0
2016-Sep-28 03:30N 69°07' E 017°45'0 0.0
2016-Sep-28 02:32N 69°07' E 017°45'0 0.0
2016-Sep-28 01:29N 69°07' E 017°45'0 0.0
2016-Sep-27 23:33N 69°07' E 017°45'0 0.0
2016-Sep-27 19:31N 69°07' E 017°45'0 0.0
2016-Sep-27 14:31N 69°07' E 017°45'0 0.0
2016-Sep-27 13:34N 69°07' E 017°45'0 0.0
2016-Sep-27 10:29N 69°07' E 017°45'0 0.0
2016-Sep-27 00:26N 69°07' E 017°45'0 0.0
2016-Sep-26 20:29N 69°07' E 017°45'0 0.0
2016-Sep-26 19:29N 69°07' E 017°45'0 0.0
2016-Sep-26 15:33N 69°07' E 017°45'0 0.0
2016-Sep-26 13:31N 69°07' E 017°45'0 0.0
2016-Sep-26 11:30N 69°07' E 017°45'0 0.0
2016-Sep-26 08:31N 69°07' E 017°45'0 0.0
2016-Sep-26 02:25N 69°07' E 017°45'0 0.0
2016-Sep-26 01:33N 69°07' E 017°45'0 0.0
2016-Sep-26 00:27N 69°07' E 017°45'0 0.0
2016-Sep-25 21:28N 69°07' E 017°45'0 0.0
2016-Sep-25 17:29N 69°07' E 017°45'0 0.0
2016-Sep-25 16:31N 69°07' E 017°45'0 0.0
2016-Sep-25 15:30N 69°07' E 017°45'0 0.0
2016-Sep-25 14:30N 69°07' E 017°45'0 0.0
2016-Sep-25 12:32N 69°07' E 017°45'0 0.0
2016-Sep-25 11:31N 69°07' E 017°45'0 0.0
2016-Sep-25 10:33N 69°07' E 017°45'0 0.0
2016-Sep-25 09:33N 69°07' E 017°45'0 0.0
2016-Sep-25 07:32N 69°07' E 017°45'0 0.0
2016-Sep-25 04:33N 69°07' E 017°45'0 0.0
2016-Sep-25 00:30N 69°07' E 017°45'0 0.0
2016-Sep-24 22:17N 69°07' E 017°45'0 0.0
2016-Sep-24 21:32N 69°07' E 017°45'0 0.0
2016-Sep-24 19:31N 69°07' E 017°45'0 0.0
2016-Sep-24 18:30N 69°07' E 017°45'0 0.0
2016-Sep-24 17:32N 69°07' E 017°45'0 0.0
2016-Sep-24 16:32N 69°07' E 017°45'0 0.0
2016-Sep-24 14:31N 69°07' E 017°45'0 0.0
2016-Sep-24 12:33N 69°07' E 017°45'17 8.6
2016-Sep-24 10:32N 68°56' E 017°07'1210.4
2016-Sep-24 09:23N 68°46' E 016°49'102 3.8
2016-Sep-23 06:33N 67°21' E 014°23'4 1.8
2016-Sep-23 04:33N 67°17' E 014°22'0 0.0
2016-Sep-23 03:33N 67°17' E 014°22'0 0.0
2016-Sep-23 02:32N 67°17' E 014°22'0 0.0
2016-Sep-23 01:31N 67°17' E 014°22'0 0.0
2016-Sep-23 00:31N 67°17' E 014°22'0 0.0
2016-Sep-22 23:33N 67°17' E 014°22'0 0.0
2016-Sep-22 20:32N 67°17' E 014°22'0 0.0
2016-Sep-22 12:31N 67°17' E 014°22'0 0.0
2016-Sep-22 04:33N 67°17' E 014°22'0 0.0
2016-Sep-22 03:31N 67°17' E 014°22'0 0.0
2016-Sep-22 00:32N 67°17' E 014°22'0 0.0
2016-Sep-21 23:32N 67°17' E 014°22'0 0.0
2016-Sep-21 22:32N 67°17' E 014°22'  
Track history (hours):
 
Tides and Currents Weather Stations Pressure Air Temp Water Temp Dewpoint Dewpoint Depression Visibility Wind Speed Wind Dir Waves Ship Positions

Gamle Salten

Last reported at 2016-Oct-01 21:32 UTC. Time now 2016-Oct-01 22:19 UTC.
Position N 67°17' E 014°22'.

Length 48 m; draft 5 m.

Type: Passenger vessel. MMSI: 258178000.

Date/timePositionNaut miles runAvg speedWind from/ knotsBaromVisibWave heightAir tempDewpointWater temp
2016-Oct-01 21:32N 67°17' E 014°22'0 0.0
2016-Oct-01 20:32N 67°17' E 014°22'0 0.0
2016-Oct-01 15:32N 67°17' E 014°22'0 0.0
2016-Oct-01 14:31N 67°17' E 014°22'0 0.0
2016-Oct-01 13:32N 67°17' E 014°22'0 0.0
2016-Oct-01 04:32N 67°17' E 014°22'0 0.0
2016-Oct-01 03:31N 67°17' E 014°22'0 0.0
2016-Oct-01 00:32N 67°17' E 014°22'0 0.0
2016-Sep-30 22:31N 67°17' E 014°22'0 0.0
2016-Sep-30 20:33N 67°17' E 014°22'0 0.0
2016-Sep-30 17:31N 67°17' E 014°22'0 0.0
2016-Sep-30 16:33N 67°17' E 014°22'0 0.0
2016-Sep-30 14:32N 67°17' E 014°22'0 0.0
2016-Sep-30 13:32N 67°17' E 014°22'5 1.7
2016-Sep-30 10:33N 67°22' E 014°24'113 4.1
2016-Sep-29 07:07N 68°60' E 016°56'19 2.9
2016-Sep-29 00:33N 69°07' E 017°45'0 0.0
2016-Sep-28 21:31N 69°07' E 017°45'0 0.0
2016-Sep-28 19:30N 69°07' E 017°45'0 0.0
2016-Sep-28 16:28N 69°07' E 017°45'0 0.0
2016-Sep-28 15:28N 69°07' E 017°45'0 0.0
2016-Sep-28 12:32N 69°07' E 017°45'0 0.0
2016-Sep-28 08:33N 69°07' E 017°45'0 0.0
2016-Sep-28 03:30N 69°07' E 017°45'0 0.0
2016-Sep-28 02:32N 69°07' E 017°45'0 0.0
2016-Sep-28 01:29N 69°07' E 017°45'0 0.0
2016-Sep-27 23:33N 69°07' E 017°45'0 0.0
2016-Sep-27 19:31N 69°07' E 017°45'0 0.0
2016-Sep-27 14:31N 69°07' E 017°45'0 0.0
2016-Sep-27 13:34N 69°07' E 017°45'0 0.0
2016-Sep-27 10:29N 69°07' E 017°45'0 0.0
2016-Sep-27 00:26N 69°07' E 017°45'0 0.0
2016-Sep-26 20:29N 69°07' E 017°45'0 0.0
2016-Sep-26 19:29N 69°07' E 017°45'0 0.0
2016-Sep-26 15:33N 69°07' E 017°45'0 0.0
2016-Sep-26 13:31N 69°07' E 017°45'0 0.0
2016-Sep-26 11:30N 69°07' E 017°45'0 0.0
2016-Sep-26 08:31N 69°07' E 017°45'0 0.0
2016-Sep-26 02:25N 69°07' E 017°45'0 0.0
2016-Sep-26 01:33N 69°07' E 017°45'0 0.0
2016-Sep-26 00:27N 69°07' E 017°45'0 0.0
2016-Sep-25 21:28N 69°07' E 017°45'0 0.0
2016-Sep-25 17:29N 69°07' E 017°45'0 0.0
2016-Sep-25 16:31N 69°07' E 017°45'0 0.0
2016-Sep-25 15:30N 69°07' E 017°45'0 0.0
2016-Sep-25 14:30N 69°07' E 017°45'0 0.0
2016-Sep-25 12:32N 69°07' E 017°45'0 0.0
2016-Sep-25 11:31N 69°07' E 017°45'0 0.0
2016-Sep-25 10:33N 69°07' E 017°45'0 0.0
2016-Sep-25 09:33N 69°07' E 017°45'0 0.0
2016-Sep-25 07:32N 69°07' E 017°45'0 0.0
2016-Sep-25 04:33N 69°07' E 017°45'0 0.0
2016-Sep-25 00:30N 69°07' E 017°45'0 0.0
2016-Sep-24 22:17N 69°07' E 017°45'0 0.0
2016-Sep-24 21:32N 69°07' E 017°45'0 0.0
2016-Sep-24 19:31N 69°07' E 017°45'0 0.0
2016-Sep-24 18:30N 69°07' E 017°45'0 0.0
2016-Sep-24 17:32N 69°07' E 017°45'0 0.0
2016-Sep-24 16:32N 69°07' E 017°45'0 0.0
2016-Sep-24 14:31N 69°07' E 017°45'0 0.0
2016-Sep-24 12:33N 69°07' E 017°45'17 8.6
2016-Sep-24 10:32N 68°56' E 017°07'1210.4
2016-Sep-24 09:23N 68°46' E 016°49'102 3.8
2016-Sep-23 06:33N 67°21' E 014°23'4 1.8
2016-Sep-23 04:33N 67°17' E 014°22'0 0.0
2016-Sep-23 03:33N 67°17' E 014°22'0 0.0
2016-Sep-23 02:32N 67°17' E 014°22'0 0.0
2016-Sep-23 01:31N 67°17' E 014°22'0 0.0
2016-Sep-23 00:31N 67°17' E 014°22'0 0.0
2016-Sep-22 23:33N 67°17' E 014°22'0 0.0
2016-Sep-22 20:32N 67°17' E 014°22'0 0.0
2016-Sep-22 12:31N 67°17' E 014°22'0 0.0
2016-Sep-22 04:33N 67°17' E 014°22'0 0.0
2016-Sep-22 03:31N 67°17' E 014°22'0 0.0
2016-Sep-22 00:32N 67°17' E 014°22'0 0.0
2016-Sep-21 23:32N 67°17' E 014°22'0 0.0
2016-Sep-21 22:32N 67°17' E 014°22'  

Dump ship's entire track history